Time;durP1;ratioP1;P1;durP2;ratioP2;P2;SDS_P1;SDS_P2;PMS_P1;PMS_P2;Temp;Humidity;BMP_temperature;BMP_pressure;BME280_temperature;BME280_humidity;BME280_pressure;Samples;Min_cycle;Max_cycle;Signal;HPM_P1;HPM_P2
2022/05/11 00:01:49;;;;;;;15.32;6.72;;;16.90;99.90;;;;;;5026776;28;20033;-67
2022/05/11 00:04:17;;;;;;;18.67;8.27;;;16.90;99.90;;;;;;5025311;28;20021;-66
2022/05/11 00:06:45;;;;;;;22.10;8.55;;;16.90;99.90;;;;;;5032923;28;20117;-66
2022/05/11 00:09:14;;;;;;;23.15;7.97;;;17.00;99.90;;;;;;5012871;28;20124;-67
2022/05/11 00:11:42;;;;;;;19.58;8.15;;;17.00;99.90;;;;;;5021375;28;20064;-67
2022/05/11 00:14:12;;;;;;;18.35;7.25;;;17.00;99.90;;;;;;5026898;28;20544;-66
2022/05/11 00:16:40;;;;;;;14.15;5.47;;;16.80;99.90;;;;;;5028591;28;20116;-67
2022/05/11 00:19:07;;;;;;;20.85;7.53;;;16.80;99.90;;;;;;5025881;28;20060;-67
2022/05/11 00:21:35;;;;;;;17.90;6.35;;;16.80;99.90;;;;;;5022717;28;20049;-67
2022/05/11 00:24:02;;;;;;;15.20;3.83;;;16.80;99.90;;;;;;5032830;28;20481;-67
2022/05/11 00:26:30;;;;;;;13.57;4.00;;;16.70;99.90;;;;;;5036556;28;20056;-68
2022/05/11 00:28:57;;;;;;;10.65;3.15;;;16.80;99.90;;;;;;5033014;28;20048;-67
2022/05/11 00:31:24;;;;;;;11.15;2.85;;;16.80;99.90;;;;;;5020873;28;20017;-67
2022/05/11 00:33:52;;;;;;;16.85;4.13;;;16.90;99.90;;;;;;5028563;28;20064;-68
2022/05/11 00:36:19;;;;;;;15.23;3.30;;;16.90;99.90;;;;;;5027820;28;20029;-67
2022/05/11 00:38:47;;;;;;;13.38;3.85;;;16.90;99.90;;;;;;5032875;28;20085;-68
2022/05/11 00:41:15;;;;;;;7.20;2.05;;;16.90;99.90;;;;;;5026976;28;20041;-67
2022/05/11 00:43:55;;;;;;;11.95;2.40;;;16.80;99.90;;;;;;5032925;28;20113;-67
2022/05/11 00:46:36;;;;;;;14.35;2.20;;;16.90;99.90;;;;;;5022405;28;20037;-67
2022/05/11 00:52:03;;;;;;;12.50;2.40;;;16.90;99.90;;;;;;5015553;28;20065;-68
2022/05/11 00:54:35;;;;;;;8.70;2.33;;;16.90;99.90;;;;;;5031780;28;20425;-68
2022/05/11 00:57:06;;;;;;;14.88;3.00;;;16.90;99.90;;;;;;5024125;28;20022;-67
2022/05/11 00:59:39;;;;;;;6.20;1.13;;;16.90;99.90;;;;;;5025906;28;20037;-68
2022/05/11 01:02:08;;;;;;;10.27;1.15;;;16.90;99.90;;;;;;5026242;28;20034;-67
2022/05/11 01:04:39;;;;;;;7.05;1.70;;;17.00;99.90;;;;;;5021318;28;20030;-68
2022/05/11 01:07:11;;;;;;;10.52;1.85;;;17.00;99.90;;;;;;5018701;28;20152;-68
2022/05/11 01:09:40;;;;;;;11.57;1.80;;;17.00;99.90;;;;;;5020205;28;20026;-68
2022/05/11 01:12:15;;;;;;;11.98;1.77;;;16.90;99.90;;;;;;5027225;28;20032;-68
2022/05/11 01:14:49;;;;;;;6.75;1.42;;;17.00;99.90;;;;;;5023316;28;20060;-68
2022/05/11 01:17:18;;;;;;;10.23;1.33;;;16.90;99.90;;;;;;5016914;28;20032;-67
2022/05/11 01:19:47;;;;;;;8.75;1.27;;;16.90;99.90;;;;;;5033371;28;20163;-67
2022/05/11 01:22:26;;;;;;;10.10;1.40;;;17.10;99.90;;;;;;5032745;28;20025;-67
2022/05/11 01:24:53;;;;;;;8.32;1.90;;;17.00;99.90;;;;;;5025361;28;20029;-68
2022/05/11 01:27:31;;;;;;;10.98;3.15;;;17.10;99.90;;;;;;5030217;28;20025;-68
2022/05/11 01:30:10;;;;;;;9.32;1.98;;;17.20;99.90;;;;;;5027430;28;20142;-67
2022/05/11 01:32:39;;;;;;;16.13;2.17;;;17.20;99.90;;;;;;5022552;28;20026;-67
2022/05/11 01:35:13;;;;;;;17.42;2.50;;;17.20;99.90;;;;;;5023738;28;20475;-67
2022/05/11 01:37:49;;;;;;;12.83;1.53;;;17.20;99.90;;;;;;5019070;28;20391;-67
2022/05/11 01:40:16;;;;;;;12.00;2.03;;;17.10;99.90;;;;;;5024072;28;20494;-68
2022/05/11 01:42:44;;;;;;;13.80;2.22;;;17.10;99.90;;;;;;5030164;28;20390;-68
2022/05/11 01:45:12;;;;;;;13.50;1.70;;;17.10;99.90;;;;;;5021976;28;20037;-68
2022/05/11 01:47:39;;;;;;;12.27;1.60;;;17.10;99.90;;;;;;5026579;28;20106;-68
2022/05/11 01:50:07;;;;;;;10.55;1.98;;;17.10;99.90;;;;;;5026886;28;20632;-67
2022/05/11 01:52:34;;;;;;;16.33;2.63;;;17.10;99.90;;;;;;5028955;28;20045;-68
2022/05/11 01:55:01;;;;;;;9.73;0.90;;;17.00;99.90;;;;;;5018973;28;20026;-68
2022/05/11 01:57:29;;;;;;;12.63;1.10;;;16.90;99.90;;;;;;5025396;28;20021;-67
2022/05/11 01:59:56;;;;;;;7.43;0.90;;;16.90;99.90;;;;;;5022962;28;20160;-68
2022/05/11 02:02:27;;;;;;;8.98;1.67;;;16.90;99.90;;;;;;5031763;28;20073;-67
2022/05/11 02:07:51;;;;;;;7.95;1.00;;;17.00;99.90;;;;;;5026885;28;20037;-68
2022/05/11 02:10:20;;;;;;;30.15;3.17;;;17.10;99.90;;;;;;5020462;28;20496;-67
2022/05/11 02:12:48;;;;;;;9.15;1.75;;;17.20;99.90;;;;;;5028968;28;20107;-68
2022/05/11 02:15:16;;;;;;;7.60;1.33;;;17.20;99.90;;;;;;5023588;28;20469;-68
2022/05/11 02:17:45;;;;;;;15.40;2.30;;;17.30;99.90;;;;;;5033130;28;20037;-68
2022/05/11 02:20:15;;;;;;;16.77;2.15;;;17.30;99.90;;;;;;5026332;28;20033;-68
2022/05/11 02:22:43;;;;;;;16.85;2.50;;;17.40;99.90;;;;;;5028168;28;20028;-68
2022/05/11 02:25:12;;;;;;;12.30;2.25;;;17.40;99.90;;;;;;5024969;28;20034;-67
2022/05/11 02:27:40;;;;;;;19.55;1.55;;;17.50;99.90;;;;;;5023685;28;20389;-68
2022/05/11 02:30:10;;;;;;;17.13;2.05;;;17.60;99.90;;;;;;5026459;28;20029;-67
2022/05/11 02:32:37;;;;;;;9.77;1.75;;;17.60;99.90;;;;;;5028651;28;20022;-68
2022/05/11 02:35:12;;;;;;;19.08;2.00;;;17.60;99.90;;;;;;5023279;28;20108;-68
2022/05/11 02:37:55;;;;;;;6.03;1.17;;;17.60;99.90;;;;;;5016352;28;20022;-68
2022/05/11 02:40:28;;;;;;;9.82;1.10;;;17.60;99.90;;;;;;5023430;28;20040;-68
2022/05/11 02:42:56;;;;;;;8.25;1.45;;;17.70;99.90;;;;;;5023520;28;20067;-68
2022/05/11 02:45:25;;;;;;;9.93;1.00;;;17.70;99.90;;;;;;5025060;28;20432;-69
2022/05/11 02:48:02;;;;;;;7.38;1.20;;;17.60;99.90;;;;;;5019022;28;20018;-69
2022/05/11 02:50:36;;;;;;;8.05;0.57;;;17.60;99.90;;;;;;5025928;28;20557;-69
2022/05/11 02:53:07;;;;;;;8.00;0.77;;;17.60;99.90;;;;;;5020288;28;20586;-69
2022/05/11 02:55:39;;;;;;;6.32;1.33;;;17.60;99.90;;;;;;5024580;28;20030;-68
2022/05/11 02:58:07;;;;;;;5.28;0.65;;;17.50;99.90;;;;;;5030346;28;20040;-68
2022/05/11 03:00:37;;;;;;;6.93;0.60;;;17.40;99.90;;;;;;5020476;28;20048;-68
2022/05/11 03:03:06;;;;;;;4.65;0.50;;;17.40;99.90;;;;;;5029063;28;20370;-69
2022/05/11 03:05:35;;;;;;;3.90;0.50;;;17.50;99.90;;;;;;5021229;28;20498;-68
2022/05/11 03:08:03;;;;;;;5.75;0.70;;;17.50;99.90;;;;;;5017571;28;20080;-68
2022/05/11 03:10:30;;;;;;;4.50;0.68;;;17.60;99.90;;;;;;5023439;28;20117;-68
2022/05/11 03:12:57;;;;;;;2.58;0.40;;;17.60;99.90;;;;;;5019898;28;20022;-68
2022/05/11 03:15:28;;;;;;;4.88;0.70;;;17.70;99.90;;;;;;5022015;28;20084;-68
2022/05/11 03:17:56;;;;;;;4.10;0.70;;;17.80;99.90;;;;;;5013148;28;20022;-69
2022/05/11 03:20:23;;;;;;;4.80;0.47;;;17.70;99.90;;;;;;5013833;28;20057;-68
2022/05/11 03:22:51;;;;;;;2.13;0.38;;;17.80;99.90;;;;;;5026450;28;20068;-69
2022/05/11 03:25:19;;;;;;;5.32;0.70;;;17.80;99.90;;;;;;5020353;28;20021;-69
2022/05/11 03:27:47;;;;;;;4.95;0.75;;;17.80;99.90;;;;;;5029590;28;20028;-69
2022/05/11 03:30:15;;;;;;;5.93;0.75;;;17.90;99.90;;;;;;5028971;28;20037;-69
2022/05/11 03:35:28;;;;;;;6.18;1.02;;;18.00;99.90;;;;;;5014883;28;20084;-69
2022/05/11 03:37:56;;;;;;;3.58;0.90;;;17.90;99.90;;;;;;5013265;28;20055;-69
2022/05/11 03:40:23;;;;;;;5.47;1.17;;;17.90;99.90;;;;;;5013449;28;20026;-69
2022/05/11 03:42:50;;;;;;;5.35;1.65;;;17.90;99.90;;;;;;5013375;28;20414;-69
2022/05/11 03:45:21;;;;;;;9.38;1.50;;;17.90;99.90;;;;;;5014110;28;20065;-68
2022/05/11 03:47:49;;;;;;;8.27;0.90;;;17.90;99.90;;;;;;5015620;28;20782;-68
2022/05/11 03:50:20;;;;;;;2.83;0.60;;;17.80;99.90;;;;;;5022371;28;20037;-69
2022/05/11 03:52:48;;;;;;;7.00;1.27;;;17.80;99.90;;;;;;5013073;28;20092;-69
2022/05/11 03:55:15;;;;;;;5.90;1.10;;;17.90;99.90;;;;;;5019448;28;20030;-69
2022/05/11 03:57:42;;;;;;;7.35;0.90;;;17.90;99.90;;;;;;5012555;28;20376;-69
2022/05/11 04:00:14;;;;;;;7.10;1.33;;;17.90;99.90;;;;;;5022001;28;20041;-69
2022/05/11 04:02:42;;;;;;;4.35;0.70;;;18.00;99.90;;;;;;5012862;28;20065;-69
2022/05/11 04:05:13;;;;;;;7.28;0.77;;;18.00;99.90;;;;;;5023284;28;20018;-67
2022/05/11 04:07:41;;;;;;;9.10;0.75;;;18.00;99.90;;;;;;5031388;28;20413;-69
2022/05/11 04:10:10;;;;;;;6.88;1.60;;;18.00;99.90;;;;;;5024041;28;20105;-68
2022/05/11 04:12:40;;;;;;;7.95;1.13;;;18.00;99.90;;;;;;5020222;28;20069;-68
2022/05/11 04:15:08;;;;;;;7.60;0.93;;;18.00;99.90;;;;;;5040343;28;20017;-68
2022/05/11 04:17:36;;;;;;;7.95;1.23;;;17.90;99.90;;;;;;5045307;28;20030;-68
2022/05/11 04:20:05;;;;;;;7.45;0.77;;;18.00;99.90;;;;;;5043918;28;20064;-68
2022/05/11 04:22:33;;;;;;;8.80;1.08;;;18.00;99.90;;;;;;5050389;28;20041;-70
2022/05/11 04:25:00;;;;;;;6.68;0.85;;;18.00;99.90;;;;;;5048817;28;20053;-68
2022/05/11 04:27:29;;;;;;;6.00;0.73;;;18.00;99.90;;;;;;5057018;28;20089;-68
2022/05/11 04:29:57;;;;;;;3.78;0.60;;;18.00;99.90;;;;;;5050140;28;20073;-68
2022/05/11 04:32:24;;;;;;;8.82;1.52;;;18.00;99.90;;;;;;5046204;28;20010;-68
2022/05/11 04:34:51;;;;;;;10.15;1.17;;;18.00;99.90;;;;;;5039851;28;20042;-68
2022/05/11 04:37:19;;;;;;;11.18;1.20;;;17.90;99.90;;;;;;5038795;28;20041;-67
2022/05/11 04:39:47;;;;;;;5.60;1.42;;;18.00;99.90;;;;;;5044778;28;20028;-68
2022/05/11 04:42:14;;;;;;;7.95;1.10;;;18.00;99.90;;;;;;5055162;28;20041;-68
2022/05/11 04:44:42;;;;;;;11.50;1.40;;;18.00;99.90;;;;;;5052422;28;20022;-68
2022/05/11 04:47:12;;;;;;;10.40;1.50;;;18.10;99.90;;;;;;5045827;28;20026;-68
2022/05/11 04:49:40;;;;;;;9.75;2.08;;;18.00;99.90;;;;;;5040304;28;20048;-68
2022/05/11 04:52:11;;;;;;;7.72;1.20;;;18.00;99.90;;;;;;5036894;28;20125;-68
2022/05/11 04:54:43;;;;;;;7.82;1.40;;;18.00;99.90;;;;;;5054090;28;20072;-67
2022/05/11 04:57:11;;;;;;;14.60;1.70;;;17.90;99.90;;;;;;5041152;28;20085;-67
2022/05/11 04:59:40;;;;;;;10.55;1.80;;;17.80;99.90;;;;;;5044733;28;20042;-67
2022/05/11 05:02:13;;;;;;;12.45;1.65;;;17.90;99.90;;;;;;5051871;28;20488;-67
2022/05/11 05:04:41;;;;;;;12.45;2.05;;;17.90;99.90;;;;;;5049688;28;20026;-67
2022/05/11 05:07:08;;;;;;;9.15;1.42;;;17.90;99.90;;;;;;5041129;28;20113;-67
2022/05/11 05:09:35;;;;;;;9.95;1.67;;;17.80;99.90;;;;;;5038630;28;20014;-67
2022/05/11 05:12:03;;;;;;;7.63;2.15;;;17.80;99.90;;;;;;5040173;28;20037;-67
2022/05/11 05:14:30;;;;;;;8.40;1.88;;;17.80;99.90;;;;;;5047719;28;20105;-68
2022/05/11 05:17:02;;;;;;;16.88;2.50;;;17.80;99.90;;;;;;5038576;28;20077;-68
2022/05/11 05:19:30;;;;;;;5.38;1.23;;;17.70;99.90;;;;;;5029926;28;20069;-69
2022/05/11 05:21:59;;;;;;;11.80;2.85;;;17.80;99.90;;;;;;5030487;28;20072;-69
2022/05/11 05:24:26;;;;;;;13.05;3.17;;;17.80;99.90;;;;;;5016507;28;20041;-68
2022/05/11 05:26:53;;;;;;;16.40;3.70;;;17.80;99.90;;;;;;5023964;28;20469;-68
2022/05/11 05:32:06;;;;;;;7.95;2.50;;;17.60;99.90;;;;;;5030631;28;20036;-70
2022/05/11 05:34:33;;;;;;;15.40;3.40;;;17.50;99.90;;;;;;5028987;28;20029;-69
2022/05/11 05:37:01;;;;;;;10.30;2.60;;;17.30;99.90;;;;;;5023144;28;20061;-69
2022/05/11 05:39:28;;;;;;;15.40;2.80;;;17.30;99.90;;;;;;5015106;28;20032;-69
2022/05/11 05:41:55;;;;;;;13.98;3.42;;;17.30;99.90;;;;;;5032522;28;20029;-69
2022/05/11 05:44:29;;;;;;;12.43;2.40;;;17.30;99.90;;;;;;5032092;28;20034;-69
2022/05/11 05:47:06;;;;;;;6.80;1.75;;;17.20;99.90;;;;;;5019496;28;20022;-68
2022/05/11 05:49:34;;;;;;;12.02;3.30;;;17.10;99.90;;;;;;5025219;28;20033;-69
2022/05/11 05:52:03;;;;;;;6.88;1.98;;;17.20;99.90;;;;;;5029927;28;20049;-69
2022/05/11 05:54:35;;;;;;;7.35;1.67;;;17.20;99.90;;;;;;5023454;28;20056;-69
2022/05/11 05:57:03;;;;;;;10.10;2.42;;;17.10;99.90;;;;;;5032697;28;20034;-69
2022/05/11 05:59:30;;;;;;;8.05;2.13;;;17.20;99.90;;;;;;5027199;28;20461;-69
2022/05/11 06:01:58;;;;;;;8.32;2.67;;;17.20;99.90;;;;;;5034203;28;20034;-70
2022/05/11 06:04:25;;;;;;;12.60;3.00;;;17.20;99.90;;;;;;5030879;28;20021;-69
2022/05/11 06:06:52;;;;;;;12.82;2.47;;;17.20;99.90;;;;;;5014141;28;20023;-69
2022/05/11 06:09:20;;;;;;;7.75;2.80;;;17.20;99.90;;;;;;5014749;28;20425;-69
2022/05/11 06:11:47;;;;;;;11.63;2.42;;;17.20;99.90;;;;;;5014320;28;20482;-69
2022/05/11 06:14:14;;;;;;;8.57;2.17;;;17.10;99.90;;;;;;5014702;28;20034;-69
2022/05/11 06:16:41;;;;;;;11.00;2.17;;;17.10;99.90;;;;;;5014486;28;20029;-69
2022/05/11 06:19:09;;;;;;;9.68;2.63;;;17.10;99.90;;;;;;5013542;28;20116;-69
2022/05/11 06:21:36;;;;;;;9.82;2.30;;;17.10;99.90;;;;;;5016928;28;20021;-69
2022/05/11 06:24:04;;;;;;;11.50;1.70;;;17.10;99.90;;;;;;5032309;28;20485;-70
2022/05/11 06:26:32;;;;;;;12.23;3.60;;;17.00;99.90;;;;;;5017610;28;20074;-69
2022/05/11 06:29:00;;;;;;;8.00;3.35;;;17.10;99.90;;;;;;5014222;28;20109;-69
2022/05/11 06:31:28;;;;;;;8.32;2.10;;;17.10;99.90;;;;;;5014795;28;20050;-70
2022/05/11 06:33:56;;;;;;;7.70;1.98;;;17.00;99.90;;;;;;5016297;28;20029;-69
2022/05/11 06:36:24;;;;;;;16.00;2.95;;;17.00;99.90;;;;;;5014180;28;20022;-69
2022/05/11 06:38:53;;;;;;;9.35;1.67;;;16.90;99.90;;;;;;5013682;28;20022;-69
2022/05/11 06:41:24;;;;;;;13.55;1.33;;;16.90;99.90;;;;;;5014576;28;20026;-69
2022/05/11 06:43:51;;;;;;;11.07;1.27;;;16.90;99.90;;;;;;5019705;28;20029;-68
2022/05/11 06:46:20;;;;;;;3.90;0.70;;;16.80;99.90;;;;;;5031237;28;20092;-69
2022/05/11 06:48:47;;;;;;;13.95;1.42;;;16.80;99.90;;;;;;5033634;28;20482;-69
2022/05/11 06:51:19;;;;;;;9.10;2.00;;;16.70;99.90;;;;;;5031496;28;20022;-69
2022/05/11 06:59:24;;;;;;;9.45;1.88;;;16.90;99.90;;;;;;5015805;28;20092;-69
2022/05/11 07:01:57;;;;;;;8.98;0.70;;;16.90;99.90;;;;;;5033255;28;20026;-69
2022/05/11 07:04:25;;;;;;;6.80;0.93;;;17.00;99.90;;;;;;5029517;28;20424;-69
2022/05/11 07:06:54;;;;;;;8.60;1.15;;;17.00;99.90;;;;;;5011413;28;21918;-69
2022/05/11 07:09:24;;;;;;;11.15;1.35;;;17.10;99.90;;;;;;5017917;28;20037;-69
2022/05/11 07:14:37;;;;;;;11.73;1.30;;;17.20;99.90;;;;;;5018623;28;20091;-68
2022/05/11 07:17:05;;;;;;;9.77;1.50;;;17.20;99.90;;;;;;5026497;28;20030;-69
2022/05/11 07:19:33;;;;;;;8.18;1.50;;;17.20;99.90;;;;;;5015963;28;20037;-69
2022/05/11 07:22:00;;;;;;;9.77;2.22;;;17.20;99.90;;;;;;5022206;28;20100;-69
2022/05/11 07:24:28;;;;;;;5.10;1.45;;;17.20;99.90;;;;;;5019752;28;20050;-68
2022/05/11 07:26:55;;;;;;;15.32;2.13;;;17.10;99.90;;;;;;5024108;28;20477;-68
2022/05/11 07:29:23;;;;;;;8.13;2.13;;;17.10;99.90;;;;;;5019395;28;20048;-68
2022/05/11 07:31:50;;;;;;;7.10;1.50;;;17.10;99.90;;;;;;5028168;28;20021;-67
2022/05/11 07:34:18;;;;;;;9.77;1.58;;;17.00;99.90;;;;;;5027556;28;20109;-68
2022/05/11 07:36:45;;;;;;;7.22;2.15;;;17.00;99.90;;;;;;5026640;28;20017;-68
2022/05/11 07:39:12;;;;;;;9.82;1.67;;;17.00;99.90;;;;;;5023762;28;20104;-68
2022/05/11 07:41:41;;;;;;;10.23;1.65;;;17.00;99.90;;;;;;5029355;28;20079;-68
2022/05/11 07:44:08;;;;;;;9.10;1.92;;;17.10;99.90;;;;;;5028389;28;20471;-69
2022/05/11 07:46:36;;;;;;;7.82;1.52;;;17.10;99.90;;;;;;5028060;28;20032;-68
2022/05/11 07:49:05;;;;;;;10.75;2.30;;;17.00;99.90;;;;;;5027757;28;20393;-68
2022/05/11 07:51:33;;;;;;;12.13;2.35;;;17.00;99.90;;;;;;5020650;28;20050;-68
2022/05/11 07:54:00;;;;;;;11.55;2.78;;;17.00;99.90;;;;;;5019897;28;20037;-69
2022/05/11 08:01:58;;;;;;;15.57;7.32;;;17.00;99.90;;;;;;5028322;28;20052;-68
2022/05/11 08:04:26;;;;;;;18.00;6.47;;;17.00;99.90;;;;;;5023631;28;20113;-69
2022/05/11 08:06:53;;;;;;;19.65;4.40;;;17.00;99.90;;;;;;5026621;28;20038;-69
2022/05/11 08:09:21;;;;;;;18.00;3.28;;;17.00;99.90;;;;;;5023892;28;20112;-70
2022/05/11 08:11:50;;;;;;;15.27;2.33;;;17.10;99.90;;;;;;5027020;28;20386;-69
2022/05/11 08:14:17;;;;;;;8.77;2.03;;;17.10;99.90;;;;;;5024978;28;20378;-69
2022/05/11 08:16:44;;;;;;;13.65;2.13;;;17.00;99.90;;;;;;5027058;28;20022;-69
2022/05/11 08:19:12;;;;;;;9.85;2.20;;;17.00;99.90;;;;;;5020910;28;20029;-69
2022/05/11 08:21:41;;;;;;;10.32;2.10;;;17.00;99.90;;;;;;5024472;28;20111;-69
2022/05/11 08:24:08;;;;;;;8.23;1.92;;;17.00;99.90;;;;;;5031880;28;20616;-69
2022/05/11 08:26:35;;;;;;;18.15;3.03;;;17.10;99.90;;;;;;5025539;28;20112;-69
2022/05/11 08:29:03;;;;;;;9.88;2.25;;;17.10;99.90;;;;;;5025199;28;20105;-69
2022/05/11 08:34:15;;;;;;;8.73;2.75;;;17.10;99.90;;;;;;5028442;28;20079;-69
2022/05/11 08:36:45;;;;;;;11.43;3.63;;;17.10;99.90;;;;;;5020279;28;20020;-69
2022/05/11 08:39:13;;;;;;;13.15;2.72;;;17.20;99.90;;;;;;5029176;28;20021;-69
2022/05/11 08:41:48;;;;;;;10.15;2.53;;;17.10;99.90;;;;;;5022359;28;20026;-69
2022/05/11 08:44:18;;;;;;;14.65;2.15;;;17.10;99.90;;;;;;5026661;28;20022;-69
2022/05/11 08:47:02;;;;;;;12.23;2.10;;;17.20;99.90;;;;;;5026143;28;20022;-69
2022/05/11 08:49:52;;;;;;;6.63;2.42;;;17.20;99.90;;;;;;5023643;28;20018;-69
2022/05/11 08:52:25;;;;;;;11.10;2.15;;;17.20;99.90;;;;;;5021494;28;20115;-69
2022/05/11 08:55:08;;;;;;;16.33;3.22;;;17.20;99.90;;;;;;5026072;28;20030;-70
2022/05/11 08:57:36;;;;;;;8.55;2.38;;;17.30;99.90;;;;;;5022985;28;20054;-69
2022/05/11 09:00:17;;;;;;;10.40;2.17;;;17.20;99.90;;;;;;5023581;28;20041;-69
2022/05/11 09:02:51;;;;;;;10.80;3.03;;;17.10;99.90;;;;;;5018231;28;20112;-68
2022/05/11 09:05:20;;;;;;;;;;;17.20;99.90;;;;;;5028134;28;20045;-68
2022/05/11 09:07:49;;;;;;;10.40;2.63;;;17.10;99.90;;;;;;5024387;28;19915;-68
2022/05/11 09:10:31;;;;;;;11.48;3.40;;;17.10;99.90;;;;;;5016850;28;20088;-68
2022/05/11 09:13:02;;;;;;;10.02;1.98;;;17.10;99.90;;;;;;5028526;28;20061;-68
2022/05/11 09:15:49;;;;;;;6.10;1.80;;;17.10;99.90;;;;;;5021889;28;20033;-68
2022/05/11 09:18:17;;;;;;;9.02;2.03;;;17.10;99.90;;;;;;5027681;28;20040;-68
2022/05/11 09:20:52;;;;;;;15.10;2.17;;;17.10;99.90;;;;;;5029334;28;20022;-68
2022/05/11 09:23:38;;;;;;;11.63;2.22;;;17.20;99.90;;;;;;5027961;28;20041;-68
2022/05/11 09:26:07;;;;;;;11.30;3.10;;;17.20;99.90;;;;;;5022257;28;20029;-68
2022/05/11 09:28:38;;;;;;;12.75;3.30;;;17.20;99.90;;;;;;5032665;28;20117;-68
2022/05/11 09:31:07;;;;;;;10.18;3.17;;;17.20;99.90;;;;;;5032579;28;20036;-68
2022/05/11 09:33:40;;;;;;;11.18;2.50;;;17.30;99.90;;;;;;5023446;28;20033;-69
2022/05/11 09:36:12;;;;;;;8.50;3.35;;;17.30;99.90;;;;;;5034438;28;20024;-68
2022/05/11 09:38:41;;;;;;;10.52;3.03;;;17.40;99.90;;;;;;5017258;28;20117;-68
2022/05/11 09:41:23;;;;;;;9.70;2.80;;;17.30;99.90;;;;;;5022854;28;20045;-68
2022/05/11 09:43:56;;;;;;;13.98;3.10;;;17.40;99.90;;;;;;5031708;28;20032;-68
2022/05/11 09:46:23;;;;;;;11.05;2.30;;;17.40;99.90;;;;;;5031437;28;20026;-69
2022/05/11 09:49:20;;;;;;;8.30;1.80;;;17.40;99.90;;;;;;5025319;28;20104;-68
2022/05/11 09:51:50;;;;;;;7.93;2.22;;;17.40;99.90;;;;;;5017355;28;20050;-68
2022/05/11 09:54:38;;;;;;;10.35;1.38;;;17.40;99.90;;;;;;5021471;28;20036;-68
2022/05/11 09:57:12;;;;;;;9.50;1.60;;;17.50;99.90;;;;;;5031744;28;20029;-68
2022/05/11 09:59:49;;;;;;;13.43;1.23;;;17.50;99.90;;;;;;5033353;28;20032;-68
2022/05/11 10:02:42;;;;;;;9.65;1.02;;;17.50;99.90;;;;;;5015715;28;20034;-68
2022/05/11 10:05:29;;;;;;;10.45;1.38;;;17.60;99.90;;;;;;5014345;28;20101;-68
2022/05/11 10:08:15;;;;;;;6.05;1.17;;;17.50;99.90;;;;;;5030797;28;20025;-68
2022/05/11 10:11:01;;;;;;;8.98;1.58;;;17.60;99.90;;;;;;5025871;28;20032;-68
2022/05/11 10:13:34;;;;;;;11.35;1.67;;;17.50;99.90;;;;;;5015073;28;20490;-68
2022/05/11 10:22:18;;;;;;;5.25;0.98;;;17.60;99.90;;;;;;5015039;28;20028;-68
2022/05/11 10:24:52;;;;;;;11.30;1.55;;;17.60;99.90;;;;;;5032698;28;20025;-68
2022/05/11 10:27:41;;;;;;;15.55;3.00;;;17.60;99.90;;;;;;5029681;28;20022;-68
2022/05/11 10:30:47;;;;;;;10.85;1.58;;;17.70;99.90;;;;;;5022427;28;20037;-68
2022/05/11 10:33:14;;;;;;;9.80;1.20;;;17.70;99.90;;;;;;5018141;28;20042;-68
2022/05/11 10:35:48;;;;;;;9.60;1.77;;;17.70;99.90;;;;;;5014364;28;20026;-68
2022/05/11 10:38:40;;;;;;;12.50;2.33;;;17.70;99.90;;;;;;5022245;28;20117;-68
2022/05/11 10:41:29;;;;;;;17.77;2.58;;;17.70;99.90;;;;;;5030922;28;20040;-69
2022/05/11 10:44:16;;;;;;;12.13;2.85;;;17.60;99.90;;;;;;5014077;28;20446;-68
2022/05/11 10:46:46;;;;;;;12.50;2.70;;;17.50;99.90;;;;;;5013480;28;20037;-69
2022/05/11 10:49:32;;;;;;;9.48;2.90;;;17.40;99.90;;;;;;5026886;28;20553;-69
2022/05/11 10:52:18;;;;;;;10.15;2.63;;;17.30;99.90;;;;;;5029138;28;20502;-68
2022/05/11 10:55:01;;;;;;;10.73;2.50;;;17.30;99.90;;;;;;5020789;28;20026;-68
2022/05/11 10:57:48;;;;;;;10.65;2.75;;;17.20;99.90;;;;;;5033234;28;20022;-69
2022/05/11 11:00:19;;;;;;;11.77;2.40;;;17.30;99.90;;;;;;5031611;28;20029;-68
2022/05/11 11:03:31;;;;;;;14.38;3.13;;;17.30;99.90;;;;;;5031922;28;20041;-68
2022/05/11 11:09:12;;;;;;;12.50;3.58;;;17.40;99.90;;;;;;5023524;28;20036;-68
2022/05/11 11:11:44;;;;;;;13.18;3.58;;;17.30;99.90;;;;;;5020114;28;20030;-68
2022/05/11 11:14:14;;;;;;;9.40;2.50;;;17.30;99.90;;;;;;5022250;28;20060;-68
2022/05/11 11:16:43;;;;;;;15.70;3.17;;;17.20;99.90;;;;;;5019126;28;20473;-69
2022/05/11 11:19:11;;;;;;;9.02;2.85;;;17.20;99.90;;;;;;5023870;28;20400;-68
2022/05/11 11:21:43;;;;;;;12.00;2.70;;;17.20;99.90;;;;;;5026005;28;20021;-68
2022/05/11 11:24:22;;;;;;;15.15;3.05;;;17.20;99.90;;;;;;5027889;28;20028;-68
2022/05/11 11:26:56;;;;;;;11.02;3.90;;;17.20;99.90;;;;;;5024312;28;20041;-70
2022/05/11 11:29:32;;;;;;;7.32;2.35;;;17.20;99.90;;;;;;5030513;28;20034;-67
2022/05/11 11:32:01;;;;;;;11.32;2.20;;;17.20;99.90;;;;;;5029852;28;20024;-67
2022/05/11 11:34:39;;;;;;;13.70;2.35;;;17.20;99.90;;;;;;5028875;28;20037;-67
2022/05/11 11:37:32;;;;;;;17.08;3.13;;;17.20;99.90;;;;;;5030395;28;20029;-67
2022/05/11 11:40:21;;;;;;;9.48;1.80;;;17.20;99.90;;;;;;5026065;28;20041;-67
2022/05/11 11:42:50;;;;;;;8.57;2.20;;;17.20;99.90;;;;;;5035370;28;20041;-67
2022/05/11 11:45:26;;;;;;;8.35;2.42;;;17.20;99.90;;;;;;5023042;28;20374;-67
2022/05/11 11:48:25;;;;;;;12.30;1.98;;;17.20;99.90;;;;;;5027484;28;20029;-67
2022/05/11 11:50:58;;;;;;;11.77;2.30;;;17.20;99.90;;;;;;5016784;28;21037;-67
2022/05/11 11:53:34;;;;;;;10.75;2.38;;;17.20;99.90;;;;;;5030794;28;20037;-68
2022/05/11 11:56:27;;;;;;;9.75;1.75;;;17.20;99.90;;;;;;5029652;28;20053;-67
2022/05/11 11:59:33;;;;;;;8.67;2.30;;;17.10;99.90;;;;;;5019694;28;20047;-67
2022/05/11 12:02:22;;;;;;;7.20;1.92;;;17.20;99.90;;;;;;5023333;28;20055;-68
2022/05/11 12:05:54;;;;;;;7.95;1.38;;;17.10;99.90;;;;;;5024827;28;20486;-67
2022/05/11 12:17:02;;;;;;;9.88;1.70;;;17.10;99.90;;;;;;5024759;28;20457;-67
2022/05/11 12:19:33;;;;;;;6.80;1.00;;;17.10;99.90;;;;;;5027095;28;20105;-67
2022/05/11 12:22:22;;;;;;;7.55;2.00;;;17.10;99.90;;;;;;5024018;28;20566;-67
2022/05/11 12:25:00;;;;;;;15.05;2.25;;;17.10;99.90;;;;;;5031067;28;20421;-67
2022/05/11 12:27:33;;;;;;;8.05;2.00;;;17.10;99.90;;;;;;5026477;28;20473;-68
2022/05/11 12:30:08;;;;;;;7.65;1.75;;;17.10;99.90;;;;;;5027019;28;20076;-68
2022/05/11 12:32:40;;;;;;;8.73;1.05;;;17.10;99.90;;;;;;5026698;28;20508;-68
2022/05/11 12:35:17;;;;;;;8.60;2.00;;;17.10;99.90;;;;;;5027712;28;20072;-68
2022/05/11 12:37:52;;;;;;;10.63;2.05;;;17.10;99.90;;;;;;5024443;28;20451;-68
2022/05/11 12:40:22;;;;;;;12.75;1.52;;;17.10;99.90;;;;;;5025871;28;20053;-68
2022/05/11 12:42:55;;;;;;;6.57;0.82;;;17.10;99.90;;;;;;5026792;28;20091;-68
2022/05/11 12:45:28;;;;;;;13.77;1.50;;;17.00;99.90;;;;;;5027956;28;20382;-68
2022/05/11 12:47:59;;;;;;;12.52;2.45;;;17.00;99.90;;;;;;5027837;28;20060;-68
2022/05/11 12:50:30;;;;;;;13.05;1.77;;;16.90;99.90;;;;;;5021153;28;20541;-67
2022/05/11 12:53:09;;;;;;;10.18;1.52;;;17.00;99.90;;;;;;5026793;28;20054;-67
2022/05/11 12:55:38;;;;;;;8.82;1.40;;;16.90;99.90;;;;;;5024774;28;20378;-67
2022/05/11 12:58:05;;;;;;;6.88;1.65;;;16.90;99.90;;;;;;5020340;28;20390;-67
2022/05/11 13:00:34;;;;;;;7.80;1.52;;;16.90;99.90;;;;;;5026069;28;20034;-67
2022/05/11 13:03:33;;;;;;;7.75;1.77;;;16.90;99.90;;;;;;5019447;28;20030;-67
2022/05/11 13:06:29;;;;;;;6.88;1.95;;;16.90;99.90;;;;;;5025801;28;20033;-68
2022/05/11 13:09:03;;;;;;;8.30;1.67;;;16.90;99.90;;;;;;5027063;28;20042;-67
2022/05/11 13:11:32;;;;;;;7.68;1.75;;;16.90;99.90;;;;;;5023137;28;20032;-67
2022/05/11 13:14:00;;;;;;;6.97;2.88;;;16.90;99.90;;;;;;5027258;28;20513;-67
2022/05/11 13:16:35;;;;;;;7.75;2.75;;;16.80;99.90;;;;;;5024802;28;20508;-67
2022/05/11 13:19:22;;;;;;;9.68;2.90;;;16.90;99.90;;;;;;5021312;28;20048;-67
2022/05/11 13:21:50;;;;;;;11.63;3.40;;;16.90;99.90;;;;;;5030669;28;20041;-68
2022/05/11 13:24:38;;;;;;;6.60;2.75;;;16.90;99.90;;;;;;5021776;28;20076;-68
2022/05/11 13:27:37;;;;;;;9.50;3.08;;;16.90;99.90;;;;;;5021756;28;20393;-67
2022/05/11 13:30:13;;;;;;;8.38;3.33;;;16.80;99.90;;;;;;5024262;28;20038;-67
2022/05/11 13:32:45;;;;;;;8.50;1.35;;;16.90;99.90;;;;;;5021167;28;20033;-67
2022/05/11 13:35:33;;;;;;;7.13;1.50;;;16.90;99.90;;;;;;5020140;28;20064;-67
2022/05/11 13:38:09;;;;;;;8.27;1.33;;;16.80;99.90;;;;;;5025691;28;20501;-68
2022/05/11 13:40:55;;;;;;;11.90;1.35;;;16.80;99.90;;;;;;5021822;28;20017;-67
2022/05/11 13:43:28;;;;;;;2.90;0.50;;;16.70;99.90;;;;;;5016876;28;20026;-67
2022/05/11 13:46:01;;;;;;;6.22;1.00;;;16.70;99.90;;;;;;5021393;28;20037;-68
2022/05/11 13:48:34;;;;;;;8.10;0.70;;;16.80;99.90;;;;;;5025687;28;20397;-68
2022/05/11 13:51:29;;;;;;;6.53;1.05;;;16.70;99.90;;;;;;5022300;28;20022;-68
2022/05/11 13:54:18;;;;;;;2.90;0.65;;;16.80;99.90;;;;;;5017644;28;20026;-68
2022/05/11 13:56:58;;;;;;;9.48;0.85;;;16.80;99.90;;;;;;5021954;28;20030;-68